Time;durP1;ratioP1;P1;durP2;ratioP2;P2;SDS_P1;SDS_P2;PMS_P1;PMS_P2;Temp;Humidity;BMP_temperature;BMP_pressure;BME280_temperature;BME280_humidity;BME280_pressure;Samples;Min_cycle;Max_cycle;Signal;HPM_P1;HPM_P2
2021/01/05 00:01:48;;;;;;;24.77;13.15;;;;;;;5.43;86.57;101095.86;1762612;81;25970;-56
2021/01/05 00:04:16;;;;;;;24.35;12.37;;;;;;;5.39;86.46;101091.20;1762609;81;25630;-56
2021/01/05 00:06:44;;;;;;;22.27;11.95;;;;;;;5.38;86.56;101085.97;1762611;80;28471;-56
2021/01/05 00:09:12;;;;;;;27.93;13.13;;;;;;;5.35;86.66;101082.14;1762377;81;25752;-56
2021/01/05 00:12:05;;;;;;;24.60;12.07;;;;;;;5.36;86.57;101087.41;1762601;81;25641;-57
2021/01/05 00:14:37;;;;;;;20.32;11.43;;;;;;;5.39;86.56;101091.69;1762686;81;26560;-56
2021/01/05 00:17:06;;;;;;;23.12;10.18;;;;;;;5.38;86.53;101091.30;1762470;81;25679;-56
2021/01/05 00:19:34;;;;;;;18.60;10.70;;;;;;;5.40;86.36;101102.74;1762598;81;27529;-56
2021/01/05 00:22:04;;;;;;;20.37;10.82;;;;;;;5.41;86.32;101088.45;1765029;79;25592;-56
2021/01/05 00:24:33;;;;;;;20.80;10.78;;;;;;;5.43;86.31;101087.86;1793973;79;25703;-56
2021/01/05 00:27:03;;;;;;;17.42;10.08;;;;;;;5.42;86.23;101096.84;1793900;79;25598;-56
2021/01/05 00:29:31;;;;;;;16.42;10.05;;;;;;;5.41;86.30;101099.13;1800370;79;25951;-56
2021/01/05 00:32:18;;;;;;;18.98;10.08;;;;;;;5.41;86.25;101110.64;1811492;79;28428;-56
2021/01/05 00:34:48;;;;;;;20.00;10.18;;;;;;;5.45;86.29;101109.97;1811393;79;25627;-56
2021/01/05 00:37:17;;;;;;;20.08;9.48;;;;;;;5.48;86.07;101117.80;1811308;78;25450;-56
2021/01/05 00:39:46;;;;;;;17.10;10.00;;;;;;;5.50;86.12;101113.23;1808898;79;25669;-56
2021/01/05 00:42:15;;;;;;;17.55;9.85;;;;;;;5.45;85.99;101105.52;1739858;82;25647;-56
2021/01/05 00:44:43;;;;;;;16.93;9.68;;;;;;;5.42;85.98;101099.02;1779401;80;27534;-56
2021/01/05 00:47:11;;;;;;;22.42;10.70;;;;;;;5.43;85.95;101098.53;1779332;80;25690;-56
2021/01/05 00:49:39;;;;;;;17.77;9.93;;;;;;;5.43;85.76;101088.73;1779486;80;25727;-57
2021/01/05 00:52:07;;;;;;;18.32;9.45;;;;;;;5.42;85.68;101075.50;1779458;80;26385;-56
2021/01/05 00:54:35;;;;;;;24.52;10.20;;;;;;;5.37;85.60;101078.91;1779504;80;26230;-57
2021/01/05 00:57:11;;;;;;;16.12;9.40;;;;;;;5.32;85.72;101068.06;1739614;82;28503;-56
2021/01/05 00:59:40;;;;;;;20.68;9.53;;;;;;;5.31;85.82;101067.68;1778908;80;26230;-56
2021/01/05 01:02:13;;;;;;;18.87;9.35;;;;;;;5.37;85.71;101060.23;1779512;80;25427;-56
2021/01/05 01:04:42;;;;;;;17.98;10.32;;;;;;;5.44;85.73;101049.55;1800017;78;25669;-57
2021/01/05 01:07:10;;;;;;;20.35;10.18;;;;;;;5.51;85.62;101034.90;1833994;78;26127;-57
2021/01/05 01:09:39;;;;;;;22.60;10.38;;;;;;;5.49;85.26;101024.30;1833994;78;27512;-56
2021/01/05 01:12:18;;;;;;;16.25;9.65;;;;;;;5.54;85.34;101020.01;1795620;78;25650;-57
2021/01/05 01:14:50;;;;;;;18.73;9.93;;;;;;;5.61;85.30;101024.48;1751026;80;25758;-56
2021/01/05 01:17:20;;;;;;;19.42;11.18;;;;;;;5.69;85.27;101019.51;1779292;79;26498;-56
2021/01/05 01:19:49;;;;;;;19.73;9.78;;;;;;;5.72;85.19;101017.98;1779499;79;25923;-56
2021/01/05 01:22:22;;;;;;;16.70;9.50;;;;;;;5.76;85.13;101007.97;1779479;80;27527;-56
2021/01/05 01:24:51;;;;;;;23.83;10.20;;;;;;;5.80;84.92;101009.00;1779194;80;26158;-57
2021/01/05 01:27:21;;;;;;;17.95;10.60;;;;;;;5.82;84.72;101010.23;1778449;80;25691;-57
2021/01/05 01:29:51;;;;;;;19.50;10.63;;;;;;;5.88;84.83;101020.50;1766874;80;26086;-56
2021/01/05 01:32:19;;;;;;;16.73;10.18;;;;;;;5.88;84.37;101020.50;1744094;82;25756;-57
2021/01/05 01:34:47;;;;;;;18.75;9.55;;;;;;;5.90;84.20;101027.94;1743771;82;28431;-56
2021/01/05 01:37:18;;;;;;;19.60;10.10;;;;;;;5.91;83.53;101032.33;1800940;78;26317;-56
2021/01/05 01:39:48;;;;;;;14.58;9.33;;;;;;;5.87;83.54;101026.80;1746504;82;25800;-57
2021/01/05 01:42:20;;;;;;;21.60;9.88;;;;;;;5.82;83.50;101019.57;1732522;82;26491;-57
2021/01/05 01:44:50;;;;;;;16.17;9.70;;;;;;;5.80;83.24;101029.02;1724738;83;26026;-56
2021/01/05 01:47:27;;;;;;;14.90;8.88;;;;;;;5.79;83.59;101033.98;1725927;83;28458;-57
2021/01/05 01:50:11;;;;;;;17.55;10.65;;;;;;;5.82;83.28;101041.42;1701854;84;25804;-57
2021/01/05 01:53:02;;;;;;;13.68;8.85;;;;;;;5.76;82.81;101044.00;1705375;83;25680;-57
2021/01/05 01:56:02;;;;;;;19.77;9.93;;;;;;;5.72;82.88;101038.01;1762516;81;26487;-56
2021/01/05 01:59:12;;;;;;;18.00;9.48;;;;;;;5.68;82.86;101036.48;1762088;81;25629;-57
2021/01/05 02:01:49;;;;;;;21.90;11.70;;;;;;;5.67;82.65;101037.92;1818105;78;28414;-57
2021/01/05 02:05:04;;;;;;;17.55;10.72;;;;;;;5.62;82.85;101034.20;1748728;81;26142;-56
2021/01/05 02:08:00;;;;;;;17.90;11.20;;;;;;;5.61;82.52;101038.67;1829041;78;25624;-56
2021/01/05 02:11:04;;;;;;;19.17;11.03;;;;;;;5.56;82.50;101029.27;1788796;78;25717;-58
2021/01/05 02:13:57;;;;;;;18.30;11.68;;;;;;;5.47;82.33;101032.03;1764917;81;25767;-58
2021/01/05 02:16:57;;;;;;;22.52;11.20;;;;;;;5.44;82.54;101025.54;1765016;81;27520;-56
2021/01/05 02:19:42;;;;;;;22.85;11.50;;;;;;;5.42;82.09;101026.98;1797898;79;25664;-56
2021/01/05 02:22:49;;;;;;;21.00;12.23;;;;;;;5.46;82.04;101037.86;1844044;76;25489;-57
2021/01/05 02:25:29;;;;;;;23.80;13.03;;;;;;;5.37;81.73;101042.89;1792654;77;26279;-56
2021/01/05 02:28:03;;;;;;;26.33;12.85;;;;;;;5.28;81.60;101039.84;1768389;81;28487;-57
2021/01/05 02:30:48;;;;;;;21.55;12.53;;;;;;;5.23;81.66;101039.75;1802971;79;26598;-56
2021/01/05 02:33:36;;;;;;;21.90;12.98;;;;;;;5.14;81.55;101035.86;1803022;79;26198;-56
2021/01/05 02:36:19;;;;;;;22.20;12.37;;;;;;;5.08;81.60;101037.09;1803148;79;25965;-57
2021/01/05 02:39:25;;;;;;;21.90;10.65;;;;;;;5.06;82.07;101037.65;1768313;80;26217;-57
2021/01/05 02:42:48;;;;;;;17.60;10.43;;;;;;;5.05;82.14;101051.09;1752505;80;27546;-57
2021/01/05 02:45:49;;;;;;;22.87;12.15;;;;;;;4.97;81.69;101039.55;1746871;81;25524;-57
2021/01/05 02:49:09;;;;;;;23.00;12.40;;;;;;;4.89;81.89;101045.33;1759121;81;26345;-57
2021/01/05 02:52:32;;;;;;;23.35;12.70;;;;;;;4.80;82.01;101024.55;1814180;79;25699;-58
2021/01/05 02:56:08;;;;;;;24.92;12.75;;;;;;;4.70;82.31;101021.14;1789548;79;25695;-56
2021/01/05 02:59:33;;;;;;;25.72;12.55;;;;;;;4.67;82.58;101021.31;1814202;79;28758;-56
2021/01/05 03:02:59;;;;;;;20.15;11.30;;;;;;;4.59;82.58;101026.25;1814163;79;25584;-56
2021/01/05 03:06:11;;;;;;;21.05;11.68;;;;;;;4.55;82.64;101023.37;1813996;79;25677;-57
2021/01/05 03:09:15;;;;;;;15.75;10.58;;;;;;;4.47;82.61;101009.64;1796308;79;25706;-57
2021/01/05 03:12:34;;;;;;;17.57;10.75;;;;;;;4.34;82.70;101005.06;1778521;80;25706;-57
2021/01/05 03:15:59;;;;;;;20.77;9.58;;;;;;;4.29;82.74;101019.59;1763169;81;28898;-56
2021/01/05 03:18:54;;;;;;;18.02;9.13;;;;;;;4.22;82.57;101007.09;1762920;81;25693;-57
2021/01/05 03:21:45;;;;;;;17.40;9.78;;;;;;;4.16;82.55;101006.98;1783600;77;25633;-55
2021/01/05 03:24:33;;;;;;;15.35;9.68;;;;;;;4.11;82.30;101002.41;1768188;81;26183;-57
2021/01/05 03:27:20;;;;;;;15.45;9.15;;;;;;;4.04;82.20;101002.34;1778268;79;25618;-57
2021/01/05 03:30:05;;;;;;;20.48;10.10;;;;;;;4.02;82.24;101003.78;1723071;83;28712;-56
2021/01/05 03:32:52;;;;;;;16.48;9.50;;;;;;;3.98;81.96;101004.92;1802444;79;25728;-57
2021/01/05 03:35:39;;;;;;;14.40;8.33;;;;;;;3.95;82.02;101005.53;1782094;80;25746;-57
2021/01/05 03:38:27;;;;;;;14.10;8.10;;;;;;;3.93;81.98;101016.28;1767581;80;25847;-57
2021/01/05 03:41:10;;;;;;;15.45;7.92;;;;;;;3.91;81.79;101013.72;1834174;76;25626;-55
2021/01/05 03:43:57;;;;;;;10.40;6.53;;;;;;;3.84;81.98;101006.16;1811093;79;25682;-57
2021/01/05 03:46:43;;;;;;;11.22;6.60;;;;;;;3.84;81.92;101013.69;1781489;80;27971;-57
2021/01/05 03:49:29;;;;;;;13.43;6.83;;;;;;;3.82;81.71;101012.91;1781458;80;25682;-57
2021/01/05 03:52:15;;;;;;;11.65;6.75;;;;;;;3.74;81.53;100992.04;1781573;80;25639;-57
2021/01/05 03:55:03;;;;;;;10.95;6.05;;;;;;;3.67;81.39;100994.66;1781525;80;25706;-56
2021/01/05 03:57:50;;;;;;;11.60;6.70;;;;;;;3.62;81.71;100994.08;1781467;80;26586;-56
2021/01/05 04:00:36;;;;;;;10.38;6.25;;;;;;;3.60;81.86;100987.49;1781552;80;28448;-56
2021/01/05 04:03:05;;;;;;;10.48;6.42;;;;;;;3.62;81.49;100982.56;1781391;80;25473;-56
2021/01/05 04:05:33;;;;;;;10.53;6.03;;;;;;;3.60;81.62;100984.83;1781555;80;25588;-57
2021/01/05 04:08:01;;;;;;;8.65;5.92;;;;;;;3.60;81.41;100976.01;1795695;79;25699;-56
2021/01/05 04:10:30;;;;;;;12.75;6.47;;;;;;;3.53;81.45;100978.14;1732131;82;25757;-56
2021/01/05 04:12:57;;;;;;;8.80;5.45;;;;;;;3.50;81.39;100969.48;1762237;81;27980;-57
2021/01/05 04:15:29;;;;;;;10.20;5.72;;;;;;;3.47;81.43;100974.96;1762136;81;25714;-56
2021/01/05 04:17:59;;;;;;;8.55;5.03;;;;;;;3.42;81.42;100969.44;1748824;81;25669;-56
2021/01/05 04:20:30;;;;;;;10.25;6.70;;;;;;;3.36;81.51;100968.91;1748675;82;26057;-56
2021/01/05 04:22:59;;;;;;;10.63;5.80;;;;;;;3.37;81.56;100987.44;1748908;82;25445;-56
2021/01/05 04:25:27;;;;;;;11.08;6.53;;;;;;;3.35;81.69;100983.15;1748827;82;27642;-56
2021/01/05 04:27:56;;;;;;;9.93;5.60;;;;;;;3.37;81.87;100983.45;1748733;82;25439;-56
2021/01/05 04:30:33;;;;;;;8.38;5.50;;;;;;;3.36;81.83;100984.39;1748771;82;25694;-57
2021/01/05 04:33:09;;;;;;;8.35;5.40;;;;;;;3.41;81.96;100981.47;1748785;81;25494;-57
2021/01/05 04:35:38;;;;;;;9.40;6.05;;;;;;;3.50;81.97;100984.95;1750970;81;25712;-57
2021/01/05 04:38:07;;;;;;;12.98;5.75;;;;;;;3.56;81.69;100997.06;1736982;82;27536;-56
2021/01/05 04:40:42;;;;;;;10.13;5.12;;;;;;;3.61;81.44;100997.68;1735297;82;26156;-56
2021/01/05 04:43:25;;;;;;;9.98;6.12;;;;;;;3.61;80.86;101000.34;1818277;78;26138;-55
2021/01/05 04:46:10;;;;;;;10.58;5.85;;;;;;;3.66;81.08;101000.08;1819612;78;26240;-56
2021/01/05 04:48:50;;;;;;;9.95;6.35;;;;;;;3.65;80.86;101003.69;1784630;78;26089;-56
2021/01/05 04:51:59;;;;;;;11.33;5.78;;;;;;;3.60;79.54;101006.11;1796163;78;26865;-56
2021/01/05 04:54:41;;;;;;;10.98;5.47;;;;;;;3.50;79.07;101015.55;1818990;78;25409;-57
2021/01/05 04:57:25;;;;;;;9.53;5.95;;;;;;;3.36;79.31;101013.64;1786380;78;25464;-57
2021/01/05 04:59:58;;;;;;;13.00;7.10;;;;;;;3.27;79.39;101008.37;1819086;78;32606;-57
2021/01/05 05:02:41;;;;;;;11.75;6.10;;;;;;;3.20;79.73;101021.61;1819096;78;25693;-57
2021/01/05 05:05:25;;;;;;;12.90;6.37;;;;;;;3.14;79.49;101009.95;1815983;78;27949;-56
2021/01/05 05:08:15;;;;;;;10.70;5.78;;;;;;;3.11;79.94;101022.95;1758675;79;26117;-57
2021/01/05 05:11:00;;;;;;;14.33;6.15;;;;;;;3.12;79.76;101021.16;1797081;79;25414;-58
2021/01/05 05:13:52;;;;;;;12.75;5.78;;;;;;;3.17;80.22;101018.27;1776833;79;25672;-56
2021/01/05 05:16:41;;;;;;;15.93;6.97;;;;;;;3.19;80.42;101029.64;1812972;78;26428;-57
2021/01/05 05:19:49;;;;;;;22.73;7.87;;;;;;;3.21;80.02;101045.93;1812758;79;27525;-57
2021/01/05 05:22:25;;;;;;;18.37;7.17;;;;;;;3.19;80.08;101046.48;1812786;79;26580;-58
2021/01/05 05:25:04;;;;;;;19.32;7.12;;;;;;;3.23;80.12;101032.55;1812397;78;25471;-58
2021/01/05 05:27:53;;;;;;;21.57;7.67;;;;;;;3.21;79.52;101033.09;1812837;78;26114;-57
2021/01/05 05:30:29;;;;;;;13.93;6.17;;;;;;;3.15;78.98;101030.28;1812981;79;25452;-57
2021/01/05 05:33:00;;;;;;;11.53;6.22;;;;;;;3.04;79.21;101014.07;1812245;79;27532;-58
2021/01/05 05:36:24;;;;;;;9.18;6.12;;;;;;;2.97;79.34;101017.52;1830849;78;25638;-57
2021/01/05 05:39:42;;;;;;;10.65;6.45;;;;;;;2.92;79.25;101019.54;1753456;81;25461;-58
2021/01/05 05:42:43;;;;;;;12.85;6.92;;;;;;;2.81;79.56;101010.81;1797171;79;25673;-57
2021/01/05 05:45:16;;;;;;;12.33;7.45;;;;;;;2.78;79.66;101011.84;1812687;78;25834;-57
2021/01/05 05:48:08;;;;;;;10.40;6.30;;;;;;;2.71;79.98;100993.63;1813102;78;27953;-58
2021/01/05 05:51:02;;;;;;;14.95;8.30;;;;;;;2.62;80.04;100998.48;1812890;79;25493;-57
2021/01/05 05:53:50;;;;;;;18.40;9.18;;;;;;;2.58;80.00;101000.05;1813082;79;25653;-57
2021/01/05 05:56:23;;;;;;;14.95;9.08;;;;;;;2.49;80.20;101000.91;1812930;78;25648;-57
2021/01/05 05:58:55;;;;;;;16.12;9.13;;;;;;;2.38;80.60;100989.97;1810529;79;26780;-57
2021/01/05 06:01:30;;;;;;;13.32;7.60;;;;;;;2.25;81.03;100987.56;1826352;78;26769;-57
2021/01/05 06:03:58;;;;;;;;;;;;;;;2.17;81.42;100981.30;1725833;82;25500;-57
2021/01/05 06:06:28;;;;;;;14.95;8.70;;;;;;;2.10;81.80;100984.75;1713133;83;25631;-57
2021/01/05 06:08:56;;;;;;;15.58;9.30;;;;;;;2.06;82.16;100995.11;1745895;82;25729;-58
2021/01/05 06:11:26;;;;;;;18.17;10.28;;;;;;;2.04;82.37;101000.95;1749555;81;25508;-58
2021/01/05 06:13:54;;;;;;;16.90;9.78;;;;;;;2.03;82.62;100992.60;1832229;78;27526;-57
2021/01/05 06:16:22;;;;;;;14.70;8.55;;;;;;;2.01;83.09;100974.59;1832258;78;26546;-57
2021/01/05 06:18:50;;;;;;;14.93;8.68;;;;;;;2.03;83.29;100975.34;1832277;78;25439;-57
2021/01/05 06:21:19;;;;;;;15.48;9.65;;;;;;;2.02;83.24;100974.95;1753518;81;25741;-57
2021/01/05 06:23:47;;;;;;;17.15;9.38;;;;;;;1.99;83.53;100973.32;1832334;78;25694;-57
2021/01/05 06:26:19;;;;;;;33.35;17.05;;;;;;;1.99;83.36;100981.77;1828506;78;27510;-57
2021/01/05 06:28:50;;;;;;;18.37;9.93;;;;;;;1.99;83.58;100979.95;1746101;82;25743;-58
2021/01/05 06:31:18;;;;;;;20.50;10.25;;;;;;;2.03;83.49;100966.06;1826955;78;25586;-57
2021/01/05 06:33:47;;;;;;;15.80;10.00;;;;;;;2.05;83.55;100962.87;1827121;78;25671;-58
2021/01/05 06:36:15;;;;;;;19.62;9.80;;;;;;;2.07;83.73;100964.11;1716399;83;25740;-58
2021/01/05 06:38:43;;;;;;;20.23;9.80;;;;;;;2.07;83.69;100974.28;1746158;82;28405;-57
2021/01/05 06:41:11;;;;;;;20.65;10.38;;;;;;;2.06;84.00;100975.69;1748749;80;25678;-57
2021/01/05 06:43:40;;;;;;;15.72;9.28;;;;;;;2.04;84.14;100982.37;1776820;80;25796;-57
2021/01/05 06:46:10;;;;;;;18.67;10.63;;;;;;;2.03;84.29;100988.17;1760754;80;25657;-57
2021/01/05 06:48:38;;;;;;;19.52;10.53;;;;;;;2.09;84.37;100983.48;1780786;80;26190;-57
2021/01/05 06:51:07;;;;;;;19.77;8.93;;;;;;;2.07;84.29;100963.66;1780622;80;28438;-57
2021/01/05 06:53:35;;;;;;;20.52;10.93;;;;;;;2.08;84.37;100949.46;1780557;80;25595;-57
2021/01/05 06:56:02;;;;;;;20.15;10.72;;;;;;;2.08;84.37;100957.42;1780459;80;25497;-58
2021/01/05 06:58:32;;;;;;;16.82;10.28;;;;;;;2.08;84.46;100957.42;1780829;80;26111;-58
2021/01/05 07:01:00;;;;;;;19.95;10.63;;;;;;;2.10;84.62;100951.58;1780596;80;25669;-57
2021/01/05 07:03:27;;;;;;;16.62;10.03;;;;;;;2.07;84.80;100934.47;1790498;79;28072;-57
2021/01/05 07:05:55;;;;;;;20.35;10.00;;;;;;;2.02;84.83;100944.44;1796905;79;26586;-57
2021/01/05 07:08:25;;;;;;;17.25;9.45;;;;;;;2.03;84.83;100931.11;1797064;79;25696;-57
2021/01/05 07:10:54;;;;;;;16.73;10.43;;;;;;;2.05;84.89;100944.30;1729065;82;26126;-57
2021/01/05 07:13:23;;;;;;;14.30;8.83;;;;;;;2.07;84.68;100941.11;1742270;82;26147;-57
2021/01/05 07:15:51;;;;;;;23.42;11.55;;;;;;;2.07;84.81;100956.16;1743002;82;27537;-57
2021/01/05 07:18:18;;;;;;;19.57;10.55;;;;;;;2.05;84.84;100950.93;1802234;79;26253;-57
2021/01/05 07:20:48;;;;;;;18.00;9.90;;;;;;;2.04;85.04;100947.88;1801694;79;25449;-57
2021/01/05 07:23:16;;;;;;;22.10;10.50;;;;;;;2.02;85.11;100951.07;1817304;78;26291;-58
2021/01/05 07:25:44;;;;;;;20.27;10.90;;;;;;;2.05;85.08;100944.30;1818716;78;25655;-57
2021/01/05 07:28:13;;;;;;;18.55;9.70;;;;;;;2.10;84.88;100948.05;1818839;78;27528;-57
2021/01/05 07:30:40;;;;;;;16.95;9.90;;;;;;;2.15;84.84;100963.29;1818622;78;25980;-57
2021/01/05 07:33:09;;;;;;;22.17;12.45;;;;;;;2.21;84.76;100955.45;1818769;78;25709;-57
2021/01/05 07:35:38;;;;;;;20.52;11.33;;;;;;;2.24;84.60;100956.16;1818853;78;25696;-57
2021/01/05 07:38:06;;;;;;;18.55;10.78;;;;;;;2.29;84.70;100954.15;1818929;78;25437;-57
2021/01/05 07:40:34;;;;;;;19.10;11.22;;;;;;;2.29;84.71;100935.56;1815962;78;27524;-57
2021/01/05 07:43:02;;;;;;;20.55;11.65;;;;;;;2.27;84.59;100936.10;1810625;79;26324;-57
2021/01/05 07:45:30;;;;;;;18.35;11.08;;;;;;;2.26;84.87;100934.86;1810871;78;25611;-58
2021/01/05 07:47:58;;;;;;;17.42;9.78;;;;;;;2.22;84.90;100940.80;1810902;79;25618;-58
2021/01/05 07:50:27;;;;;;;18.27;10.35;;;;;;;2.20;85.17;100925.41;1810943;79;26352;-57
2021/01/05 07:52:57;;;;;;;18.30;10.88;;;;;;;2.16;85.27;100918.08;1810800;79;27986;-58
2021/01/05 07:55:28;;;;;;;19.57;11.15;;;;;;;2.19;85.35;100922.37;1810771;79;25633;-57
2021/01/05 07:57:56;;;;;;;18.10;12.00;;;;;;;2.18;85.46;100925.50;1810863;78;25631;-57
2021/01/05 08:00:28;;;;;;;25.45;13.03;;;;;;;2.20;85.50;100928.07;1810824;79;26031;-57
2021/01/05 08:02:58;;;;;;;22.37;12.47;;;;;;;2.23;85.58;100928.37;1766544;79;25699;-57
2021/01/05 08:05:28;;;;;;;22.87;12.43;;;;;;;2.26;85.91;100938.84;1759981;81;28943;-57
2021/01/05 08:07:58;;;;;;;30.85;16.20;;;;;;;2.30;85.61;100935.95;1759709;81;25746;-56
2021/01/05 08:10:30;;;;;;;21.02;12.23;;;;;;;2.28;85.46;100931.67;1760046;81;25647;-56
2021/01/05 08:13:02;;;;;;;23.55;12.30;;;;;;;2.32;85.67;100943.83;1759982;81;26213;-56
2021/01/05 08:15:30;;;;;;;19.82;11.10;;;;;;;2.37;85.36;100940.94;1760053;81;25770;-56
2021/01/05 08:17:59;;;;;;;20.82;11.25;;;;;;;2.38;85.34;100935.55;1760028;81;27554;-56
2021/01/05 08:20:31;;;;;;;18.30;11.73;;;;;;;2.43;85.20;100934.85;1759905;81;26133;-56
2021/01/05 08:23:01;;;;;;;19.52;10.90;;;;;;;2.45;84.98;100934.31;1759944;81;25756;-57
2021/01/05 08:25:30;;;;;;;23.32;12.53;;;;;;;2.50;85.01;100936.24;1760097;81;26448;-56
2021/01/05 08:27:59;;;;;;;22.50;12.53;;;;;;;2.55;84.96;100934.67;1760226;81;25727;-56
2021/01/05 08:30:34;;;;;;;18.92;11.55;;;;;;;2.57;85.03;100930.59;1760146;81;27620;-56
2021/01/05 08:33:08;;;;;;;21.17;10.85;;;;;;;2.61;84.90;100929.52;1760014;81;25657;-56
2021/01/05 08:35:37;;;;;;;19.30;11.63;;;;;;;2.63;84.79;100928.48;1760204;79;25507;-56
2021/01/05 08:38:05;;;;;;;18.92;11.22;;;;;;;2.65;84.85;100922.63;1760186;81;25646;-56
2021/01/05 08:40:35;;;;;;;20.65;11.38;;;;;;;2.65;84.75;100911.13;1767630;80;25735;-56
2021/01/05 08:43:11;;;;;;;17.67;11.48;;;;;;;2.65;84.45;100918.64;1790181;80;27528;-56
2021/01/05 08:45:42;;;;;;;17.77;10.20;;;;;;;2.68;84.63;100920.27;1792675;79;25823;-56
2021/01/05 08:48:11;;;;;;;16.12;10.48;;;;;;;2.68;84.58;100915.45;1727601;82;25751;-56
2021/01/05 08:50:40;;;;;;;19.73;11.73;;;;;;;2.70;84.86;100902.47;1744144;82;26495;-57
2021/01/05 08:53:10;;;;;;;18.57;11.03;;;;;;;2.70;84.69;100906.91;1727375;83;25662;-56
2021/01/05 08:55:42;;;;;;;18.10;11.12;;;;;;;2.72;84.58;100907.69;1744000;82;28424;-55
2021/01/05 08:58:11;;;;;;;19.27;10.50;;;;;;;2.73;84.71;100902.77;1744418;82;25743;-56
2021/01/05 09:00:40;;;;;;;17.00;9.78;;;;;;;2.73;84.70;100902.31;1726403;82;25791;-56
2021/01/05 09:03:08;;;;;;;24.92;11.55;;;;;;;2.80;84.78;100890.41;1714914;83;25731;-56
2021/01/05 09:05:39;;;;;;;18.50;11.03;;;;;;;2.84;84.67;100888.89;1714133;83;25703;-56
2021/01/05 09:08:07;;;;;;;16.73;10.48;;;;;;;2.90;84.74;100891.23;1715159;83;27541;-56
2021/01/05 09:10:36;;;;;;;16.70;10.13;;;;;;;2.91;84.50;100892.47;1715138;83;26273;-56
2021/01/05 09:13:04;;;;;;;14.55;8.08;;;;;;;2.93;84.43;100885.73;1715024;83;25760;-56
2021/01/05 09:15:32;;;;;;;13.65;8.60;;;;;;;2.94;84.34;100886.12;1715165;83;25618;-56
2021/01/05 09:18:02;;;;;;;13.72;8.45;;;;;;;3.00;84.32;100883.15;1715196;83;25477;-56
2021/01/05 09:20:30;;;;;;;15.63;9.55;;;;;;;3.00;84.09;100884.93;1715107;83;27506;-56
2021/01/05 09:22:58;;;;;;;16.52;10.65;;;;;;;3.03;84.02;100879.45;1714984;83;25645;-56
2021/01/05 09:25:26;;;;;;;17.00;9.98;;;;;;;3.06;84.02;100877.94;1714896;83;25662;-56
2021/01/05 09:27:54;;;;;;;13.15;9.03;;;;;;;3.12;84.19;100874.96;1714806;83;25694;-56
2021/01/05 09:30:24;;;;;;;16.25;9.23;;;;;;;3.18;84.00;100891.89;1714928;83;25720;-56
2021/01/05 09:32:52;;;;;;;19.23;9.73;;;;;;;3.21;83.96;100885.08;1714736;83;27180;-55
2021/01/05 09:35:20;;;;;;;15.35;8.58;;;;;;;3.29;84.27;100881.97;1739066;81;25931;-56
2021/01/05 09:37:49;;;;;;;15.05;8.20;;;;;;;3.36;84.14;100875.84;1766199;80;25688;-57
2021/01/05 09:40:20;;;;;;;22.65;11.78;;;;;;;3.36;84.06;100870.04;1756846;81;25981;-57
2021/01/05 09:42:48;;;;;;;26.20;13.40;;;;;;;3.40;84.07;100869.42;1758839;80;25731;-56
2021/01/05 09:45:18;;;;;;;37.03;17.32;;;;;;;3.51;84.36;100866.14;1765788;81;28511;-56
2021/01/05 09:47:46;;;;;;;25.50;13.40;;;;;;;3.60;84.25;100873.59;1765873;81;25673;-56
2021/01/05 09:50:15;;;;;;;19.77;10.85;;;;;;;3.68;84.00;100871.80;1766088;81;25687;-56
2021/01/05 09:52:42;;;;;;;16.42;10.08;;;;;;;3.74;83.83;100864.80;1765926;81;25678;-57
2021/01/05 09:55:12;;;;;;;17.15;10.18;;;;;;;3.75;83.81;100863.38;1766018;81;25604;-56
2021/01/05 09:57:39;;;;;;;16.02;10.40;;;;;;;3.78;83.75;100863.66;1766031;81;28493;-56
2021/01/05 10:00:10;;;;;;;16.73;9.20;;;;;;;3.83;83.68;100864.27;1742989;80;25659;-56
2021/01/05 10:02:38;;;;;;;11.38;8.15;;;;;;;3.87;83.83;100856.47;1796774;78;25653;-57
2021/01/05 10:05:07;;;;;;;18.10;8.50;;;;;;;3.98;83.90;100850.52;1769979;81;25687;-56
2021/01/05 10:07:35;;;;;;;14.03;8.90;;;;;;;4.03;83.80;100854.24;1769924;81;25653;-56
2021/01/05 10:10:07;;;;;;;13.60;8.05;;;;;;;4.12;83.50;100852.81;1770042;81;28163;-56
2021/01/05 10:12:35;;;;;;;13.83;8.73;;;;;;;4.14;83.23;100847.78;1808016;78;25543;-56
2021/01/05 10:15:05;;;;;;;15.40;9.15;;;;;;;4.16;83.14;100849.03;1810305;79;25662;-57
2021/01/05 10:17:33;;;;;;;19.65;9.15;;;;;;;4.17;83.35;100837.44;1810357;79;25628;-56
2021/01/05 10:20:01;;;;;;;15.53;9.08;;;;;;;4.20;83.28;100837.23;1810218;79;25698;-56
2021/01/05 10:22:30;;;;;;;21.60;11.85;;;;;;;4.24;83.25;100826.79;1809986;79;27524;-56
2021/01/05 10:24:58;;;;;;;23.60;13.70;;;;;;;4.29;83.26;100824.69;1810018;79;25608;-57
2021/01/05 10:27:27;;;;;;;20.32;12.47;;;;;;;4.32;82.98;100824.51;1810172;79;26087;-56
2021/01/05 10:29:55;;;;;;;17.82;9.70;;;;;;;4.31;82.22;100821.46;1810323;79;26036;-56
2021/01/05 10:32:25;;;;;;;14.30;8.95;;;;;;;4.25;81.63;100828.96;1810281;79;26295;-56
2021/01/05 10:34:53;;;;;;;12.05;8.60;;;;;;;4.19;81.68;100823.08;1807844;79;27528;-56
2021/01/05 10:37:21;;;;;;;10.80;7.35;;;;;;;4.17;81.95;100822.80;1804791;79;25727;-56
2021/01/05 10:39:50;;;;;;;12.65;7.67;;;;;;;4.17;82.18;100824.97;1798436;79;25686;-56
2021/01/05 10:42:19;;;;;;;13.50;8.85;;;;;;;4.20;82.41;100815.92;1735354;80;26486;-56
2021/01/05 10:44:47;;;;;;;14.85;8.85;;;;;;;4.22;82.60;100817.54;1735443;82;25726;-57
2021/01/05 10:47:16;;;;;;;14.98;9.30;;;;;;;4.21;81.95;100813.16;1745668;81;27530;-56
2021/01/05 10:49:44;;;;;;;14.23;8.78;;;;;;;4.20;82.40;100814.14;1745867;81;25775;-56
2021/01/05 10:52:17;;;;;;;18.37;10.35;;;;;;;4.25;82.83;100811.20;1746179;81;25498;-56
2021/01/05 10:54:48;;;;;;;19.23;11.30;;;;;;;4.25;82.49;100801.00;1746165;81;25641;-56
2021/01/05 10:57:17;;;;;;;17.95;11.93;;;;;;;4.24;82.56;100812.14;1731799;81;26461;-56
2021/01/05 10:59:45;;;;;;;16.52;11.00;;;;;;;4.32;82.86;100807.66;1712503;83;28516;-56
2021/01/05 11:02:13;;;;;;;15.60;9.28;;;;;;;4.32;82.64;100788.55;1735424;82;25502;-56
2021/01/05 11:04:40;;;;;;;14.15;9.15;;;;;;;4.35;81.83;100802.15;1735486;82;25654;-56
2021/01/05 11:07:16;;;;;;;14.95;8.38;;;;;;;4.32;82.22;100792.55;1735346;82;25704;-56
2021/01/05 11:09:44;;;;;;;;;;;;;;;4.29;81.91;100794.06;1738150;82;25714;-57
2021/01/05 11:12:18;;;;;;;13.65;8.45;;;;;;;4.25;81.91;100795.67;1706095;84;28607;-57
2021/01/05 11:14:46;;;;;;;14.93;8.25;;;;;;;4.28;82.39;100796.34;1702310;84;25721;-57
2021/01/05 11:17:14;;;;;;;10.30;7.08;;;;;;;4.33;82.55;100788.94;1735482;82;25668;-57
2021/01/05 11:19:43;;;;;;;10.05;6.87;;;;;;;4.41;82.83;100793.77;1706089;84;26493;-57
2021/01/05 11:22:17;;;;;;;11.97;7.12;;;;;;;4.51;83.12;100798.06;1735668;81;26217;-57
2021/01/05 11:24:46;;;;;;;11.55;6.78;;;;;;;4.61;83.04;100796.53;1716969;82;27530;-57
2021/01/05 11:27:16;;;;;;;11.12;7.95;;;;;;;4.63;82.50;100795.09;1733734;82;25740;-57
2021/01/05 11:29:46;;;;;;;11.68;6.97;;;;;;;4.65;82.40;100787.38;1733833;82;25688;-57
2021/01/05 11:32:17;;;;;;;11.08;6.55;;;;;;;4.65;82.18;100787.38;1733826;82;25637;-57
2021/01/05 11:34:47;;;;;;;9.65;7.10;;;;;;;4.67;82.26;100787.27;1733959;82;26094;-57
2021/01/05 11:37:19;;;;;;;11.70;6.90;;;;;;;4.67;82.58;100788.59;1733848;82;27593;-57
2021/01/05 11:39:52;;;;;;;11.20;6.90;;;;;;;4.68;82.43;100790.31;1733890;81;25639;-57
2021/01/05 11:42:23;;;;;;;;;;;;;;;4.70;82.36;100786.63;1752741;80;25634;-57
2021/01/05 11:44:51;;;;;;;9.75;5.67;;;;;;;4.71;81.80;100790.13;1765588;81;25793;-56
2021/01/05 11:47:22;;;;;;;11.45;7.33;;;;;;;4.62;81.11;100785.38;1765908;81;26043;-56
2021/01/05 11:49:50;;;;;;;14.65;8.50;;;;;;;4.51;80.66;100784.73;1765952;81;27535;-57
2021/01/05 11:52:18;;;;;;;11.65;8.00;;;;;;;4.34;80.64;100782.66;1765968;81;25731;-57
2021/01/05 11:54:46;;;;;;;13.68;8.75;;;;;;;4.29;81.13;100791.39;1765914;81;25667;-57
2021/01/05 11:57:14;;;;;;;17.85;8.73;;;;;;;4.27;81.39;100777.80;1737278;81;26440;-57
2021/01/05 11:59:42;;;;;;;16.35;8.63;;;;;;;4.25;81.51;100789.02;1735981;82;25822;-57
2021/01/05 12:02:10;;;;;;;13.10;7.97;;;;;;;4.26;81.88;100795.57;1747278;81;28457;-57